createdAt,value
2024-02-03T00:00:48.968Z,98489.27
2024-02-03T00:03:37.319Z,98491.77
2024-02-03T00:06:06.195Z,98492.91
2024-02-03T00:08:34.912Z,98489.90
2024-02-03T00:11:08.867Z,98490.98
2024-02-03T00:13:37.025Z,98493.59
2024-02-03T00:16:07.299Z,98494.70
2024-02-03T00:18:35.853Z,98496.44
2024-02-03T00:21:05.857Z,98495.29
2024-02-03T00:23:34.157Z,98490.39
2024-02-03T00:26:02.417Z,98490.43
2024-02-03T00:28:30.567Z,98486.27
2024-02-03T00:30:58.607Z,98487.70
2024-02-03T00:33:26.817Z,98488.92
2024-02-03T00:35:55.041Z,98493.85
2024-02-03T00:38:23.145Z,98492.21
2024-02-03T00:40:51.140Z,98489.75
2024-02-03T00:43:19.270Z,98491.02
2024-02-03T00:45:47.952Z,98488.01
2024-02-03T00:48:16.463Z,98487.27
2024-02-03T00:50:44.619Z,98482.76
2024-02-03T00:53:12.682Z,98480.99
2024-02-03T00:55:40.737Z,98472.91
2024-02-03T00:58:09.740Z,98467.08
2024-02-03T01:00:37.854Z,98462.16
2024-02-03T01:03:06.338Z,98458.15
2024-02-03T01:05:34.641Z,98452.80
2024-02-03T01:08:02.998Z,98454.09
2024-02-03T01:10:31.133Z,98454.88
2024-02-03T01:12:59.388Z,98447.15
2024-02-03T01:15:27.834Z,98453.16
2024-02-03T01:17:56.155Z,98449.58
2024-02-03T01:20:24.371Z,98448.20
2024-02-03T01:22:52.509Z,98444.52
2024-02-03T01:25:20.553Z,98445.88
2024-02-03T01:27:48.852Z,98448.65
2024-02-03T01:30:17.912Z,98450.22
2024-02-03T01:32:46.080Z,98455.30
2024-02-03T01:35:14.234Z,98447.60
2024-02-03T01:37:42.351Z,98438.77
2024-02-03T01:40:13.578Z,98429.34
2024-02-03T01:42:42.770Z,98420.07
2024-02-03T01:45:14.233Z,98416.35
2024-02-03T01:47:42.877Z,98409.66
2024-02-03T01:50:13.924Z,98405.08
2024-02-03T01:52:44.170Z,98411.26
2024-02-03T01:55:13.140Z,98412.11
2024-02-03T01:57:44.012Z,98409.72
2024-02-03T02:00:14.055Z,98397.63
2024-02-03T02:02:42.226Z,98389.41
2024-02-03T02:05:10.602Z,98381.63
2024-02-03T02:07:45.843Z,98379.42
2024-02-03T02:10:14.165Z,98371.67
2024-02-03T02:12:42.640Z,98361.38
2024-02-03T02:15:11.155Z,98349.10
2024-02-03T02:17:39.419Z,98348.36
2024-02-03T02:20:11.737Z,98349.95
2024-02-03T02:22:40.357Z,98345.26
2024-02-03T02:25:08.579Z,98342.14
2024-02-03T02:27:36.694Z,98332.45
2024-02-03T02:30:05.303Z,98326.71
2024-02-03T02:32:33.454Z,98315.03
2024-02-03T02:35:01.546Z,98317.01
2024-02-03T02:37:31.132Z,98315.06
2024-02-03T02:39:59.229Z,98309.29
2024-02-03T02:42:27.479Z,98319.40
2024-02-03T02:44:55.658Z,98324.14
2024-02-03T02:47:23.788Z,98335.18
2024-02-03T02:49:52.088Z,98337.22
2024-02-03T02:52:20.415Z,98325.83
2024-02-03T02:54:48.556Z,98339.77
2024-02-03T02:57:16.711Z,98323.66
2024-02-03T02:59:44.835Z,98317.34
2024-02-03T03:02:13.077Z,98327.69
2024-02-03T03:04:41.317Z,98337.13
2024-02-03T03:07:09.417Z,98335.48
2024-02-03T03:09:37.531Z,98331.52
2024-02-03T03:12:06.002Z,98332.75
2024-02-03T03:14:34.046Z,98336.50
2024-02-03T03:17:02.071Z,98341.55
2024-02-03T03:19:30.188Z,98343.77
2024-02-03T03:21:58.599Z,98341.98
2024-02-03T03:24:26.632Z,98339.95
2024-02-03T03:26:54.718Z,98338.82
2024-02-03T03:29:22.894Z,98331.02
2024-02-03T03:31:50.930Z,98334.90
2024-02-03T03:34:19.114Z,98330.88
2024-02-03T03:36:47.337Z,98330.04
2024-02-03T03:39:15.507Z,98328.20
2024-02-03T03:41:43.913Z,98323.08
2024-02-03T03:44:11.920Z,98314.86
2024-02-03T03:46:40.341Z,98302.73
2024-02-03T03:49:08.418Z,98299.98
2024-02-03T03:51:36.615Z,98303.86
2024-02-03T03:54:04.737Z,98303.27
2024-02-03T03:56:32.832Z,98304.58
2024-02-03T03:59:02.528Z,98303.54
2024-02-03T04:01:30.834Z,98300.13
2024-02-03T04:03:59.153Z,98299.55
2024-02-03T04:06:27.371Z,98301.50
2024-02-03T04:08:56.148Z,98297.71
2024-02-03T04:11:24.198Z,98291.09
2024-02-03T04:13:52.311Z,98281.85
2024-02-03T04:16:20.419Z,98287.27
2024-02-03T04:18:49.618Z,98281.04
2024-02-03T04:21:18.798Z,98275.36
2024-02-03T04:23:47.038Z,98269.39
2024-02-03T04:26:15.102Z,98268.55
2024-02-03T04:28:43.153Z,98271.88
2024-02-03T04:31:13.484Z,98275.58
2024-02-03T04:33:41.800Z,98277.39
2024-02-03T04:36:10.703Z,98272.14
2024-02-03T04:38:38.773Z,98267.56
2024-02-03T04:41:06.887Z,98265.73
2024-02-03T04:43:34.944Z,98259.47
2024-02-03T04:46:03.105Z,98255.45
2024-02-03T04:48:31.285Z,98249.42
2024-02-03T04:50:59.791Z,98247.54
2024-02-03T04:53:27.789Z,98246.42
2024-02-03T04:55:55.930Z,98243.11
2024-02-03T04:58:24.421Z,98238.75
2024-02-03T05:00:52.687Z,98239.59
2024-02-03T05:03:20.860Z,98230.94
2024-02-03T05:05:49.348Z,98224.05
2024-02-03T05:08:17.779Z,98219.48
2024-02-03T05:10:45.922Z,98218.81
2024-02-03T05:13:14.096Z,98214.39
2024-02-03T05:15:42.158Z,98209.04
2024-02-03T05:18:10.360Z,98197.22
2024-02-03T05:20:38.554Z,98201.10
2024-02-03T05:23:06.706Z,98199.79
2024-02-03T05:25:34.764Z,98200.69
2024-02-03T05:28:03.536Z,98198.14
2024-02-03T05:30:31.644Z,98202.61
2024-02-03T05:32:59.734Z,98205.27
2024-02-03T05:35:27.931Z,98204.40
2024-02-03T05:37:55.974Z,98205.42
2024-02-03T05:40:24.124Z,98204.23
2024-02-03T05:42:52.309Z,98196.58
2024-02-03T05:45:23.405Z,98196.02
2024-02-03T05:47:52.135Z,98194.39
2024-02-03T05:50:20.417Z,98195.48
2024-02-03T05:52:48.445Z,98196.02
2024-02-03T05:55:16.710Z,98198.45
2024-02-03T05:57:53.165Z,98199.46
2024-02-03T06:00:22.007Z,98199.98
2024-02-03T06:02:50.216Z,98201.58
2024-02-03T06:05:18.645Z,98201.88
2024-02-03T06:07:46.776Z,98200.39
2024-02-03T06:10:14.941Z,98206.83
2024-02-03T06:12:43.025Z,98205.64
2024-02-03T06:15:11.172Z,98203.66
2024-02-03T06:17:39.309Z,98206.84
2024-02-03T06:20:08.327Z,98199.41
2024-02-03T06:22:36.508Z,98201.30
2024-02-03T06:25:04.880Z,98200.04
2024-02-03T06:27:33.254Z,98200.16
2024-02-03T06:30:01.261Z,98194.64
2024-02-03T06:32:29.348Z,98196.38
2024-02-03T06:34:57.508Z,98197.73
2024-02-03T06:37:25.666Z,98197.64
2024-02-03T06:39:53.774Z,98199.14
2024-02-03T06:42:21.921Z,98199.11
2024-02-03T06:44:53.001Z,98195.34
2024-02-03T06:47:21.448Z,98191.90
2024-02-03T06:49:49.803Z,98194.71
2024-02-03T06:52:17.990Z,98196.96
2024-02-03T06:54:46.301Z,98203.62
2024-02-03T06:57:14.376Z,98207.21
2024-02-03T06:59:42.498Z,98207.81
2024-02-03T07:02:10.540Z,98205.98
2024-02-03T07:04:38.649Z,98210.23
2024-02-03T07:07:06.766Z,98218.12
2024-02-03T07:09:35.017Z,98215.42
2024-02-03T07:12:07.606Z,98223.06
2024-02-03T07:14:36.631Z,98222.38
2024-02-03T07:17:04.942Z,98222.41
2024-02-03T07:19:33.241Z,98226.66
2024-02-03T07:22:01.555Z,98231.41
2024-02-03T07:24:30.704Z,98234.42
2024-02-03T07:26:58.912Z,98239.22
2024-02-03T07:29:26.975Z,98243.69
2024-02-03T07:32:02.338Z,98243.91
2024-02-03T07:34:31.362Z,98239.92
2024-02-03T07:36:59.580Z,98241.16
2024-02-03T07:39:27.668Z,98239.20
2024-02-03T07:41:56.238Z,98241.19
2024-02-03T07:44:24.378Z,98244.75
2024-02-03T07:46:52.393Z,98251.22
2024-02-03T07:49:20.731Z,98247.30
2024-02-03T07:51:48.922Z,98248.65
2024-02-03T07:54:17.334Z,98243.12
2024-02-03T07:56:45.462Z,98245.41
2024-02-03T07:59:13.537Z,98246.30
2024-02-03T08:01:41.679Z,98248.94
2024-02-03T08:04:10.038Z,98249.28
2024-02-03T08:06:38.373Z,98251.66
2024-02-03T08:09:06.519Z,98250.48
2024-02-03T08:11:34.657Z,98245.48
2024-02-03T08:14:02.779Z,98251.78
2024-02-03T08:16:30.793Z,98245.73
2024-02-03T08:18:58.950Z,98246.70
2024-02-03T08:21:27.158Z,98238.40
2024-02-03T08:23:55.411Z,98226.96
2024-02-03T08:26:23.590Z,98224.30
2024-02-03T08:28:51.675Z,98224.09
2024-02-03T08:31:19.726Z,98216.51
2024-02-03T08:33:47.883Z,98218.12
2024-02-03T08:36:16.142Z,98218.45
2024-02-03T08:38:44.361Z,98212.83
2024-02-03T08:41:15.765Z,98211.71
2024-02-03T08:43:44.648Z,98207.50
2024-02-03T08:46:12.726Z,98203.86
2024-02-03T08:48:40.931Z,98194.77
2024-02-03T08:51:09.356Z,98190.77
2024-02-03T08:53:37.324Z,98188.88
2024-02-03T08:56:08.529Z,98194.83
2024-02-03T08:58:36.638Z,98202.55
2024-02-03T09:01:05.010Z,98192.10
2024-02-03T09:03:33.184Z,98189.84
2024-02-03T09:06:01.356Z,98194.92
2024-02-03T09:08:30.238Z,98201.58
2024-02-03T09:10:58.370Z,98210.34
2024-02-03T09:13:26.420Z,98214.41
2024-02-03T09:15:54.709Z,98212.38
2024-02-03T09:18:23.157Z,98217.31
2024-02-03T09:20:51.512Z,98220.75
2024-02-03T09:23:19.521Z,98222.55
2024-02-03T09:25:49.786Z,98217.80
2024-02-03T09:28:17.842Z,98219.98
2024-02-03T09:30:46.204Z,98219.77
2024-02-03T09:33:14.479Z,98218.48
2024-02-03T09:35:42.679Z,98224.24
2024-02-03T09:38:10.779Z,98218.60
2024-02-03T09:40:39.067Z,98218.36
2024-02-03T09:43:07.756Z,98221.26
2024-02-03T09:45:37.071Z,98213.78
2024-02-03T09:48:06.051Z,98204.31
2024-02-03T09:50:34.439Z,98207.87
2024-02-03T09:53:02.732Z,98201.35
2024-02-03T09:55:30.818Z,98201.91
2024-02-03T09:57:59.842Z,98201.73
2024-02-03T10:00:28.488Z,98204.61
2024-02-03T10:02:56.627Z,98203.02
2024-02-03T10:05:32.232Z,98200.80
2024-02-03T10:08:07.493Z,98195.42
2024-02-03T10:13:11.783Z,98184.45
2024-02-03T10:15:41.192Z,98179.66
2024-02-03T10:18:09.920Z,98166.69
2024-02-03T10:20:38.513Z,98169.89
2024-02-03T10:23:08.260Z,98175.56
2024-02-03T10:25:37.029Z,98187.01
2024-02-03T10:28:06.882Z,98188.54
2024-02-03T10:30:36.856Z,98188.72
2024-02-03T10:33:08.402Z,98177.06
2024-02-03T10:35:38.105Z,98184.91
2024-02-03T10:38:06.225Z,98181.52
2024-02-03T10:40:35.694Z,98171.35
2024-02-03T10:43:07.688Z,98163.48
2024-02-03T10:45:39.188Z,98162.79
2024-02-03T10:48:11.487Z,98163.78
2024-02-03T10:50:44.865Z,98160.58
2024-02-03T10:53:19.959Z,98151.83
2024-02-03T10:55:56.645Z,98145.00
2024-02-03T10:58:27.400Z,98143.59
2024-02-03T11:00:57.877Z,98139.21
2024-02-03T11:03:31.235Z,98138.83
2024-02-03T11:06:04.809Z,98134.23
2024-02-03T11:08:34.350Z,98126.30
2024-02-03T11:11:02.470Z,98130.35
2024-02-03T11:13:31.645Z,98132.19
2024-02-03T11:16:01.573Z,98131.09
2024-02-03T11:18:40.525Z,98132.16
2024-02-03T11:21:09.620Z,98137.59
2024-02-03T11:23:37.732Z,98143.11
2024-02-03T11:26:05.972Z,98146.02
2024-02-03T11:28:35.413Z,98148.16
2024-02-03T11:31:05.860Z,98147.02
2024-02-03T11:33:47.794Z,98148.36
2024-02-03T11:36:16.301Z,98134.91
2024-02-03T11:38:48.822Z,98127.46
2024-02-03T11:41:17.692Z,98120.14
2024-02-03T11:43:49.646Z,98112.66
2024-02-03T11:46:19.161Z,98109.67
2024-02-03T11:48:48.398Z,98103.46
2024-02-03T11:51:17.052Z,98100.44
2024-02-03T11:53:45.395Z,98102.33
2024-02-03T11:56:13.662Z,98095.92
2024-02-03T11:58:42.890Z,98095.92
2024-02-03T12:01:14.548Z,98086.40
2024-02-03T12:03:43.034Z,98084.38
2024-02-03T12:06:11.964Z,98078.63
2024-02-03T12:08:40.332Z,98076.27
2024-02-03T12:11:10.719Z,98073.23
2024-02-03T12:13:42.022Z,98077.56
2024-02-03T12:16:10.304Z,98077.70
2024-02-03T12:18:40.292Z,98064.80
2024-02-03T12:21:08.930Z,98065.16
2024-02-03T12:23:37.434Z,98062.83
2024-02-03T12:26:05.644Z,98059.13
2024-02-03T12:28:34.258Z,98055.64
2024-02-03T12:31:02.725Z,98056.23
2024-02-03T12:33:31.109Z,98058.71
2024-02-03T12:36:00.618Z,98059.17
2024-02-03T12:38:28.874Z,98055.98
2024-02-03T12:40:57.138Z,98053.80
2024-02-03T12:43:25.358Z,98051.62
2024-02-03T12:45:53.873Z,98046.61
2024-02-03T12:48:22.234Z,98037.99
2024-02-03T12:50:53.330Z,98037.18
2024-02-03T12:53:21.984Z,98036.89
2024-02-03T12:55:50.623Z,98039.64
2024-02-03T12:58:18.854Z,98038.89
2024-02-03T13:00:47.108Z,98030.68
2024-02-03T13:03:15.381Z,98025.96
2024-02-03T13:05:48.792Z,98028.86
2024-02-03T13:08:17.671Z,98028.49
2024-02-03T13:10:46.274Z,98032.15
2024-02-03T13:13:14.685Z,98038.86
2024-02-03T13:15:42.857Z,98042.40
2024-02-03T13:18:11.442Z,98040.16
2024-02-03T13:20:40.980Z,98043.17
2024-02-03T13:23:09.188Z,98047.39
2024-02-03T13:25:38.214Z,98046.96
2024-02-03T13:28:07.654Z,98038.64
2024-02-03T13:30:36.083Z,98036.94
2024-02-03T13:33:04.841Z,98035.95
2024-02-03T13:35:33.288Z,98029.20
2024-02-03T13:38:05.077Z,98031.78
2024-02-03T13:40:33.497Z,98033.27
2024-02-03T13:43:02.464Z,98037.23
2024-02-03T13:45:32.420Z,98045.98
2024-02-03T13:48:01.249Z,98055.45
2024-02-03T13:50:29.623Z,98057.94
2024-02-03T13:52:57.730Z,98057.38
2024-02-03T13:55:25.959Z,98057.59
2024-02-03T13:57:54.109Z,98057.53
2024-02-03T14:00:22.459Z,98053.02
2024-02-03T14:02:51.286Z,98064.80
2024-02-03T14:05:19.598Z,98074.23
2024-02-03T14:07:47.803Z,98080.04
2024-02-03T14:10:16.007Z,98087.11
2024-02-03T14:12:44.164Z,98078.35
2024-02-03T14:15:12.553Z,98076.38
2024-02-03T14:17:40.830Z,98078.84
2024-02-03T14:20:09.892Z,98077.23
2024-02-03T14:22:38.035Z,98076.55
2024-02-03T14:25:06.873Z,98075.71
2024-02-03T14:27:36.339Z,98076.52
2024-02-03T14:30:07.110Z,98076.45
2024-02-03T14:32:35.680Z,98077.77
2024-02-03T14:35:04.534Z,98079.44
2024-02-03T14:37:33.064Z,98083.56
2024-02-03T14:40:01.535Z,98078.38
2024-02-03T14:42:30.050Z,98065.54
2024-02-03T14:44:58.382Z,98059.11
2024-02-03T14:47:29.064Z,98057.82
2024-02-03T14:49:58.062Z,98059.20
2024-02-03T14:52:26.776Z,98067.14
2024-02-03T14:54:54.942Z,98065.17
2024-02-03T14:57:24.183Z,98064.92
2024-02-03T14:59:52.522Z,98077.93
2024-02-03T15:02:20.620Z,98083.00
2024-02-03T15:04:48.814Z,98082.43
2024-02-03T15:07:17.047Z,98091.06
2024-02-03T15:09:46.456Z,98094.05
2024-02-03T15:12:15.111Z,98101.10
2024-02-03T15:14:43.215Z,98104.38
2024-02-03T15:17:12.639Z,98100.38
2024-02-03T15:19:41.862Z,98093.39
2024-02-03T15:22:10.027Z,98099.48
2024-02-03T15:24:38.237Z,98113.73
2024-02-03T15:27:06.433Z,98117.70
2024-02-03T15:29:34.671Z,98116.73
2024-02-03T15:32:02.800Z,98120.39
2024-02-03T15:34:31.702Z,98121.15
2024-02-03T15:37:01.719Z,98129.90
2024-02-03T15:39:30.347Z,98124.30
2024-02-03T15:41:58.520Z,98133.95
2024-02-03T15:44:35.712Z,98137.03
2024-02-03T15:47:10.238Z,98143.19
2024-02-03T15:49:38.427Z,98145.34
2024-02-03T15:52:07.041Z,98147.21
2024-02-03T15:54:35.164Z,98151.21
2024-02-03T15:57:03.849Z,98146.64
2024-02-03T15:59:33.221Z,98145.02
2024-02-03T16:02:01.568Z,98151.85
2024-02-03T16:04:29.994Z,98148.57
2024-02-03T16:06:58.489Z,98154.34
2024-02-03T16:09:27.044Z,98155.70
2024-02-03T16:11:56.659Z,98157.73
2024-02-03T16:14:25.186Z,98158.91
2024-02-03T16:16:53.305Z,98158.92
2024-02-03T16:19:21.767Z,98157.19
2024-02-03T16:21:50.695Z,98165.07
2024-02-03T16:24:18.876Z,98165.88
2024-02-03T16:26:47.049Z,98171.42
2024-02-03T16:29:15.206Z,98175.67
2024-02-03T16:31:43.297Z,98174.86
2024-02-03T16:34:11.640Z,98175.76
2024-02-03T16:36:39.778Z,98181.04
2024-02-03T16:39:07.921Z,98183.08
2024-02-03T16:41:36.060Z,98180.56
2024-02-03T16:44:04.410Z,98181.73
2024-02-03T16:46:32.496Z,98178.11
2024-02-03T16:49:01.565Z,98175.65
2024-02-03T16:51:30.324Z,98170.23
2024-02-03T16:53:58.626Z,98169.10
2024-02-03T16:56:27.013Z,98167.95
2024-02-03T16:58:55.235Z,98166.65
2024-02-03T17:01:23.374Z,98162.48
2024-02-03T17:03:52.026Z,98167.86
2024-02-03T17:06:20.874Z,98170.31
2024-02-03T17:08:50.046Z,98172.34
2024-02-03T17:11:18.252Z,98169.46
2024-02-03T17:13:46.265Z,98168.14
2024-02-03T17:16:14.552Z,98168.35
2024-02-03T17:18:42.781Z,98164.96
2024-02-03T17:21:11.009Z,98162.45
2024-02-03T17:23:39.165Z,98156.80
2024-02-03T17:26:07.898Z,98148.46
2024-02-03T17:28:35.973Z,98144.91
2024-02-03T17:31:04.706Z,98147.52
2024-02-03T17:33:33.037Z,98150.21
2024-02-03T17:36:01.331Z,98151.09
2024-02-03T17:38:29.426Z,98150.13
2024-02-03T17:40:57.488Z,98157.62
2024-02-03T17:43:25.634Z,98154.88
2024-02-03T17:45:53.707Z,98153.59
2024-02-03T17:48:22.596Z,98156.07
2024-02-03T17:50:52.549Z,98159.52
2024-02-03T17:53:20.716Z,98160.33
2024-02-03T17:55:49.258Z,98164.31
2024-02-03T17:58:17.346Z,98161.67
2024-02-03T18:00:45.535Z,98162.25
2024-02-03T18:03:13.743Z,98163.48
2024-02-03T18:05:43.855Z,98168.09
2024-02-03T18:08:13.796Z,98173.20
2024-02-03T18:10:41.979Z,98177.77
2024-02-03T18:13:10.775Z,98178.92
2024-02-03T18:15:38.844Z,98176.17
2024-02-03T18:18:08.715Z,98173.98
2024-02-03T18:20:36.961Z,98167.58
2024-02-03T18:23:05.641Z,98168.90
2024-02-03T18:25:33.708Z,98178.52
2024-02-03T18:28:01.730Z,98177.90
2024-02-03T18:30:29.789Z,98177.55
2024-02-03T18:32:58.001Z,98180.55
2024-02-03T18:35:26.220Z,98174.55
2024-02-03T18:37:54.212Z,98171.77
2024-02-03T18:40:22.418Z,98169.16
2024-02-03T18:42:50.541Z,98173.02
2024-02-03T18:45:19.748Z,98171.05
2024-02-03T18:47:48.199Z,98162.91
2024-02-03T18:50:16.348Z,98159.40
2024-02-03T18:52:46.077Z,98156.75
2024-02-03T18:55:14.151Z,98156.99
2024-02-03T18:57:42.200Z,98159.45
2024-02-03T19:00:10.693Z,98163.27
2024-02-03T19:02:38.915Z,98172.48
2024-02-03T19:05:09.901Z,98168.10
2024-02-03T19:07:38.006Z,98163.48
2024-02-03T19:10:07.443Z,98158.16
2024-02-03T19:12:35.584Z,98153.14
2024-02-03T19:15:04.776Z,98151.55
2024-02-03T19:17:33.801Z,98145.54
2024-02-03T19:20:04.771Z,98140.94
2024-02-03T19:22:34.154Z,98139.34
2024-02-03T19:25:02.313Z,98138.65
2024-02-03T19:27:31.768Z,98138.56
2024-02-03T19:30:01.172Z,98132.50
2024-02-03T19:32:29.411Z,98131.86
2024-02-03T19:34:57.743Z,98131.13
2024-02-03T19:37:26.208Z,98126.05
2024-02-03T19:39:55.325Z,98126.32
2024-02-03T19:42:23.549Z,98128.52
2024-02-03T19:44:51.959Z,98128.50
2024-02-03T19:47:20.109Z,98128.45
2024-02-03T19:49:48.459Z,98129.80
2024-02-03T19:52:16.708Z,98129.57
2024-02-03T19:54:44.894Z,98133.65
2024-02-03T19:57:12.962Z,98130.34
2024-02-03T19:59:41.116Z,98140.19
2024-02-03T20:02:09.535Z,98144.83
2024-02-03T20:04:38.682Z,98138.29
2024-02-03T20:07:06.927Z,98136.77
2024-02-03T20:09:35.862Z,98140.26
2024-02-03T20:12:04.310Z,98139.20
2024-02-03T20:14:32.394Z,98134.29
2024-02-03T20:17:00.438Z,98140.13
2024-02-03T20:19:28.878Z,98138.98
2024-02-03T20:21:57.216Z,98141.60
2024-02-03T20:24:27.422Z,98137.02
2024-02-03T20:26:56.414Z,98140.23
2024-02-03T20:29:24.456Z,98139.97
2024-02-03T20:31:52.658Z,98137.92
2024-02-03T20:34:21.337Z,98138.20
2024-02-03T20:36:50.983Z,98133.61
2024-02-03T20:39:19.500Z,98127.28
2024-02-03T20:41:47.625Z,98118.64
2024-02-03T20:44:17.416Z,98118.25
2024-02-03T20:46:47.692Z,98115.06
2024-02-03T20:49:16.278Z,98118.11
2024-02-03T20:51:44.899Z,98115.65
2024-02-03T20:54:13.552Z,98121.31
2024-02-03T20:56:41.597Z,98119.55
2024-02-03T20:59:09.625Z,98113.32
2024-02-03T21:01:37.792Z,98110.05
2024-02-03T21:04:09.869Z,98114.52
2024-02-03T21:06:38.422Z,98118.61
2024-02-03T21:09:14.615Z,98115.70
2024-02-03T21:11:46.901Z,98112.51
2024-02-03T21:14:16.055Z,98109.16
2024-02-03T21:16:44.150Z,98105.77
2024-02-03T21:19:12.563Z,98104.48
2024-02-03T21:21:43.579Z,98100.61
2024-02-03T21:24:11.751Z,98093.52
2024-02-03T21:26:39.845Z,98093.27
2024-02-03T21:29:07.966Z,98101.70
2024-02-03T21:31:36.014Z,98096.35
2024-02-03T21:34:04.332Z,98089.41
2024-02-03T21:36:32.669Z,98086.91
2024-02-03T21:39:00.789Z,98084.48
2024-02-03T21:41:28.842Z,98081.18
2024-02-03T21:43:59.635Z,98085.05
2024-02-03T21:46:27.724Z,98083.36
2024-02-03T21:48:56.002Z,98087.27
2024-02-03T21:51:24.505Z,98090.70
2024-02-03T21:53:52.650Z,98086.92
2024-02-03T21:56:21.723Z,98087.56
2024-02-03T21:58:49.853Z,98085.44
2024-02-03T22:01:18.168Z,98080.19
2024-02-03T22:03:46.648Z,98077.57
2024-02-03T22:06:14.876Z,98073.48
2024-02-03T22:08:43.780Z,98067.31
2024-02-03T22:11:11.807Z,98067.52
2024-02-03T22:13:39.930Z,98072.30
2024-02-03T22:16:07.989Z,98070.70
2024-02-03T22:18:36.541Z,98072.36
2024-02-03T22:21:07.427Z,98074.14
2024-02-03T22:23:37.298Z,98072.94
2024-02-03T22:26:05.722Z,98069.13
2024-02-03T22:28:33.865Z,98064.62
2024-02-03T22:31:02.011Z,98058.17
2024-02-03T22:33:30.484Z,98057.86
2024-02-03T22:35:58.591Z,98052.67
2024-02-03T22:38:26.607Z,98047.51
2024-02-03T22:40:54.739Z,98039.39
2024-02-03T22:43:22.746Z,98040.48
2024-02-03T22:45:51.083Z,98039.71
2024-02-03T22:48:19.319Z,98042.58
2024-02-03T22:50:47.551Z,98043.97
2024-02-03T22:53:15.707Z,98036.28
2024-02-03T22:55:43.685Z,98033.70
2024-02-03T22:58:11.867Z,98034.70
2024-02-03T23:00:42.360Z,98029.77
2024-02-03T23:03:11.168Z,98029.38
2024-02-03T23:05:39.723Z,98034.26
2024-02-03T23:08:07.849Z,98038.83
2024-02-03T23:10:35.927Z,98032.62
2024-02-03T23:13:04.310Z,98026.51
2024-02-03T23:15:32.660Z,98025.17
2024-02-03T23:18:01.595Z,98027.50
2024-02-03T23:20:29.868Z,98028.44
2024-02-03T23:22:58.185Z,98024.17
2024-02-03T23:25:28.133Z,98020.72
2024-02-03T23:27:56.363Z,98016.29
2024-02-03T23:30:24.489Z,98014.29
2024-02-03T23:32:52.591Z,98013.95
2024-02-03T23:35:20.641Z,98012.59
2024-02-03T23:37:48.687Z,98012.70
2024-02-03T23:40:16.816Z,98010.00
2024-02-03T23:42:44.891Z,98005.85
2024-02-03T23:45:13.050Z,98001.00
2024-02-03T23:47:41.932Z,98001.30
2024-02-03T23:50:10.267Z,97998.86
2024-02-03T23:52:38.454Z,97999.73
2024-02-03T23:55:07.425Z,98000.39
2024-02-03T23:57:35.627Z,97998.20
